sensor_id;sensor_type;location;lat;lon;timestamp;P1;durP1;ratioP1;P2;durP2;ratioP2
72524;SDS011;60547;48.502;8.996;2022-09-02T00:03:44;8.27;;;4.85;;
72524;SDS011;60547;48.502;8.996;2022-09-02T00:06:10;7.00;;;4.78;;
72524;SDS011;60547;48.502;8.996;2022-09-02T00:08:37;6.30;;;4.40;;
72524;SDS011;60547;48.502;8.996;2022-09-02T00:11:03;6.40;;;4.60;;
72524;SDS011;60547;48.502;8.996;2022-09-02T00:13:31;6.80;;;4.25;;
72524;SDS011;60547;48.502;8.996;2022-09-02T00:15:57;8.73;;;4.28;;
72524;SDS011;60547;48.502;8.996;2022-09-02T00:18:23;7.15;;;5.00;;
72524;SDS011;60547;48.502;8.996;2022-09-02T00:20:50;6.80;;;4.22;;
72524;SDS011;60547;48.502;8.996;2022-09-02T00:23:16;6.55;;;4.32;;
72524;SDS011;60547;48.502;8.996;2022-09-02T00:25:42;5.80;;;4.05;;
72524;SDS011;60547;48.502;8.996;2022-09-02T00:28:09;8.63;;;5.00;;
72524;SDS011;60547;48.502;8.996;2022-09-02T00:30:35;5.65;;;4.18;;
72524;SDS011;60547;48.502;8.996;2022-09-02T00:33:02;9.70;;;4.68;;
72524;SDS011;60547;48.502;8.996;2022-09-02T00:35:28;6.30;;;4.75;;
72524;SDS011;60547;48.502;8.996;2022-09-02T00:37:54;6.50;;;4.80;;
72524;SDS011;60547;48.502;8.996;2022-09-02T00:40:19;6.50;;;4.40;;
72524;SDS011;60547;48.502;8.996;2022-09-02T00:42:45;7.55;;;4.60;;
72524;SDS011;60547;48.502;8.996;2022-09-02T00:45:11;6.53;;;4.43;;
72524;SDS011;60547;48.502;8.996;2022-09-02T00:47:36;7.88;;;5.28;;
72524;SDS011;60547;48.502;8.996;2022-09-02T00:50:07;6.70;;;4.63;;
72524;SDS011;60547;48.502;8.996;2022-09-02T00:52:39;7.72;;;4.50;;
72524;SDS011;60547;48.502;8.996;2022-09-02T00:55:13;6.07;;;4.28;;
72524;SDS011;60547;48.502;8.996;2022-09-02T00:57:40;7.65;;;4.60;;
72524;SDS011;60547;48.502;8.996;2022-09-02T01:00:14;5.88;;;4.50;;
72524;SDS011;60547;48.502;8.996;2022-09-02T01:02:46;6.35;;;4.50;;
72524;SDS011;60547;48.502;8.996;2022-09-02T01:05:22;5.65;;;4.38;;
72524;SDS011;60547;48.502;8.996;2022-09-02T01:07:50;6.10;;;4.35;;
72524;SDS011;60547;48.502;8.996;2022-09-02T01:10:22;5.85;;;4.13;;
72524;SDS011;60547;48.502;8.996;2022-09-02T01:12:54;6.65;;;4.30;;
72524;SDS011;60547;48.502;8.996;2022-09-02T01:15:22;6.18;;;4.03;;
72524;SDS011;60547;48.502;8.996;2022-09-02T01:17:49;6.97;;;4.70;;
72524;SDS011;60547;48.502;8.996;2022-09-02T01:20:17;7.85;;;4.60;;
72524;SDS011;60547;48.502;8.996;2022-09-02T01:22:46;7.45;;;4.60;;
72524;SDS011;60547;48.502;8.996;2022-09-02T01:25:14;7.00;;;4.43;;
72524;SDS011;60547;48.502;8.996;2022-09-02T01:27:42;6.82;;;4.05;;
72524;SDS011;60547;48.502;8.996;2022-09-02T01:30:09;7.18;;;4.30;;
72524;SDS011;60547;48.502;8.996;2022-09-02T01:32:37;7.30;;;4.70;;
72524;SDS011;60547;48.502;8.996;2022-09-02T01:35:03;6.95;;;4.60;;
72524;SDS011;60547;48.502;8.996;2022-09-02T01:37:29;6.05;;;4.38;;
72524;SDS011;60547;48.502;8.996;2022-09-02T01:39:56;6.25;;;4.40;;
72524;SDS011;60547;48.502;8.996;2022-09-02T01:42:22;6.22;;;4.18;;
72524;SDS011;60547;48.502;8.996;2022-09-02T01:44:48;7.28;;;4.35;;
72524;SDS011;60547;48.502;8.996;2022-09-02T01:47:17;6.53;;;4.45;;
72524;SDS011;60547;48.502;8.996;2022-09-02T01:49:45;8.10;;;4.20;;
72524;SDS011;60547;48.502;8.996;2022-09-02T01:52:10;7.38;;;4.20;;
72524;SDS011;60547;48.502;8.996;2022-09-02T01:54:36;6.75;;;4.78;;
72524;SDS011;60547;48.502;8.996;2022-09-02T01:57:02;6.50;;;4.68;;
72524;SDS011;60547;48.502;8.996;2022-09-02T01:59:28;8.55;;;4.80;;
72524;SDS011;60547;48.502;8.996;2022-09-02T02:01:53;9.48;;;4.72;;
72524;SDS011;60547;48.502;8.996;2022-09-02T02:04:19;6.50;;;4.40;;
72524;SDS011;60547;48.502;8.996;2022-09-02T02:06:46;6.78;;;4.30;;
72524;SDS011;60547;48.502;8.996;2022-09-02T02:09:12;5.97;;;4.32;;
72524;SDS011;60547;48.502;8.996;2022-09-02T02:11:40;5.75;;;4.20;;
72524;SDS011;60547;48.502;8.996;2022-09-02T02:14:07;6.70;;;4.20;;
72524;SDS011;60547;48.502;8.996;2022-09-02T02:16:34;7.63;;;4.75;;
72524;SDS011;60547;48.502;8.996;2022-09-02T02:18:59;7.10;;;4.38;;
72524;SDS011;60547;48.502;8.996;2022-09-02T02:21:25;5.95;;;4.30;;
72524;SDS011;60547;48.502;8.996;2022-09-02T02:23:50;7.18;;;4.30;;
72524;SDS011;60547;48.502;8.996;2022-09-02T02:26:16;6.00;;;4.10;;
72524;SDS011;60547;48.502;8.996;2022-09-02T02:28:41;6.45;;;3.90;;
72524;SDS011;60547;48.502;8.996;2022-09-02T02:31:07;6.53;;;4.43;;
72524;SDS011;60547;48.502;8.996;2022-09-02T02:33:33;6.32;;;4.13;;
72524;SDS011;60547;48.502;8.996;2022-09-02T02:36:00;6.57;;;4.05;;
72524;SDS011;60547;48.502;8.996;2022-09-02T02:38:28;5.55;;;3.72;;
72524;SDS011;60547;48.502;8.996;2022-09-02T02:40:54;6.18;;;4.40;;
72524;SDS011;60547;48.502;8.996;2022-09-02T02:43:22;5.55;;;4.00;;
72524;SDS011;60547;48.502;8.996;2022-09-02T02:45:48;5.65;;;4.30;;
72524;SDS011;60547;48.502;8.996;2022-09-02T02:48:14;6.28;;;4.07;;
72524;SDS011;60547;48.502;8.996;2022-09-02T02:50:39;5.32;;;3.70;;
72524;SDS011;60547;48.502;8.996;2022-09-02T02:53:06;5.70;;;4.13;;
72524;SDS011;60547;48.502;8.996;2022-09-02T02:55:32;8.35;;;4.38;;
72524;SDS011;60547;48.502;8.996;2022-09-02T02:57:58;7.03;;;4.10;;
72524;SDS011;60547;48.502;8.996;2022-09-02T03:00:27;6.53;;;3.83;;
72524;SDS011;60547;48.502;8.996;2022-09-02T03:03:01;6.10;;;3.55;;
72524;SDS011;60547;48.502;8.996;2022-09-02T03:05:30;6.55;;;4.03;;
72524;SDS011;60547;48.502;8.996;2022-09-02T03:07:56;6.97;;;4.03;;
72524;SDS011;60547;48.502;8.996;2022-09-02T03:10:22;7.25;;;4.15;;
72524;SDS011;60547;48.502;8.996;2022-09-02T03:12:47;6.30;;;4.00;;
72524;SDS011;60547;48.502;8.996;2022-09-02T03:15:14;5.45;;;3.70;;
72524;SDS011;60547;48.502;8.996;2022-09-02T03:17:42;5.75;;;4.60;;
72524;SDS011;60547;48.502;8.996;2022-09-02T03:20:09;6.00;;;4.25;;
72524;SDS011;60547;48.502;8.996;2022-09-02T03:22:35;5.22;;;3.80;;
72524;SDS011;60547;48.502;8.996;2022-09-02T03:25:05;6.22;;;4.22;;
72524;SDS011;60547;48.502;8.996;2022-09-02T03:27:32;5.78;;;4.00;;
72524;SDS011;60547;48.502;8.996;2022-09-02T03:29:59;6.35;;;3.85;;
72524;SDS011;60547;48.502;8.996;2022-09-02T03:32:25;5.30;;;3.55;;
72524;SDS011;60547;48.502;8.996;2022-09-02T03:34:51;6.10;;;3.83;;
72524;SDS011;60547;48.502;8.996;2022-09-02T03:37:18;6.63;;;4.45;;
72524;SDS011;60547;48.502;8.996;2022-09-02T03:39:45;6.63;;;3.72;;
72524;SDS011;60547;48.502;8.996;2022-09-02T03:42:10;6.22;;;4.40;;
72524;SDS011;60547;48.502;8.996;2022-09-02T03:44:37;6.50;;;4.45;;
72524;SDS011;60547;48.502;8.996;2022-09-02T03:47:04;6.53;;;4.68;;
72524;SDS011;60547;48.502;8.996;2022-09-02T03:49:29;7.18;;;4.55;;
72524;SDS011;60547;48.502;8.996;2022-09-02T03:51:55;6.53;;;4.50;;
72524;SDS011;60547;48.502;8.996;2022-09-02T03:54:20;7.05;;;5.15;;
72524;SDS011;60547;48.502;8.996;2022-09-02T03:56:46;7.38;;;4.93;;
72524;SDS011;60547;48.502;8.996;2022-09-02T03:59:11;6.90;;;4.93;;
72524;SDS011;60547;48.502;8.996;2022-09-02T04:01:37;6.97;;;4.65;;
72524;SDS011;60547;48.502;8.996;2022-09-02T04:04:03;6.00;;;4.55;;
72524;SDS011;60547;48.502;8.996;2022-09-02T04:06:30;7.57;;;4.35;;
72524;SDS011;60547;48.502;8.996;2022-09-02T04:08:55;6.47;;;4.60;;
72524;SDS011;60547;48.502;8.996;2022-09-02T04:11:21;5.63;;;4.35;;
72524;SDS011;60547;48.502;8.996;2022-09-02T04:13:48;5.97;;;4.32;;
72524;SDS011;60547;48.502;8.996;2022-09-02T04:16:17;6.15;;;4.05;;
72524;SDS011;60547;48.502;8.996;2022-09-02T04:18:45;5.50;;;3.72;;
72524;SDS011;60547;48.502;8.996;2022-09-02T04:21:11;5.57;;;3.88;;
72524;SDS011;60547;48.502;8.996;2022-09-02T04:23:36;6.10;;;3.97;;
72524;SDS011;60547;48.502;8.996;2022-09-02T04:26:05;5.50;;;3.88;;
72524;SDS011;60547;48.502;8.996;2022-09-02T04:28:33;6.28;;;4.50;;
72524;SDS011;60547;48.502;8.996;2022-09-02T04:30:58;6.70;;;4.05;;
72524;SDS011;60547;48.502;8.996;2022-09-02T04:33:24;7.95;;;4.80;;
72524;SDS011;60547;48.502;8.996;2022-09-02T04:35:49;6.63;;;4.53;;
72524;SDS011;60547;48.502;8.996;2022-09-02T04:38:17;7.22;;;4.85;;
72524;SDS011;60547;48.502;8.996;2022-09-02T04:40:43;7.68;;;4.60;;
72524;SDS011;60547;48.502;8.996;2022-09-02T04:43:10;5.75;;;4.25;;
72524;SDS011;60547;48.502;8.996;2022-09-02T04:45:43;7.72;;;4.70;;
72524;SDS011;60547;48.502;8.996;2022-09-02T04:48:10;7.50;;;5.05;;
72524;SDS011;60547;48.502;8.996;2022-09-02T04:50:37;6.22;;;4.60;;
72524;SDS011;60547;48.502;8.996;2022-09-02T04:53:03;7.53;;;4.63;;
72524;SDS011;60547;48.502;8.996;2022-09-02T04:55:30;6.88;;;4.45;;
72524;SDS011;60547;48.502;8.996;2022-09-02T04:57:57;5.95;;;4.45;;
72524;SDS011;60547;48.502;8.996;2022-09-02T05:00:23;6.97;;;5.00;;
72524;SDS011;60547;48.502;8.996;2022-09-02T05:02:49;6.82;;;4.57;;
72524;SDS011;60547;48.502;8.996;2022-09-02T05:05:14;7.05;;;4.47;;
72524;SDS011;60547;48.502;8.996;2022-09-02T05:07:40;7.22;;;4.90;;
72524;SDS011;60547;48.502;8.996;2022-09-02T05:10:06;7.22;;;4.97;;
72524;SDS011;60547;48.502;8.996;2022-09-02T05:12:32;6.88;;;4.75;;
72524;SDS011;60547;48.502;8.996;2022-09-02T05:14:59;8.10;;;5.07;;
72524;SDS011;60547;48.502;8.996;2022-09-02T05:17:26;7.65;;;4.65;;
72524;SDS011;60547;48.502;8.996;2022-09-02T05:19:53;6.72;;;4.47;;
72524;SDS011;60547;48.502;8.996;2022-09-02T05:22:19;14.35;;;4.72;;
72524;SDS011;60547;48.502;8.996;2022-09-02T05:24:44;6.63;;;5.00;;
72524;SDS011;60547;48.502;8.996;2022-09-02T05:27:10;7.85;;;4.40;;
72524;SDS011;60547;48.502;8.996;2022-09-02T05:29:37;7.55;;;4.78;;
72524;SDS011;60547;48.502;8.996;2022-09-02T05:32:03;7.28;;;4.63;;
72524;SDS011;60547;48.502;8.996;2022-09-02T05:34:29;7.00;;;4.82;;
72524;SDS011;60547;48.502;8.996;2022-09-02T05:36:55;6.88;;;4.70;;
72524;SDS011;60547;48.502;8.996;2022-09-02T05:39:21;7.90;;;4.80;;
72524;SDS011;60547;48.502;8.996;2022-09-02T05:41:46;8.70;;;5.85;;
72524;SDS011;60547;48.502;8.996;2022-09-02T05:44:11;9.75;;;4.97;;
72524;SDS011;60547;48.502;8.996;2022-09-02T05:46:37;8.18;;;5.03;;
72524;SDS011;60547;48.502;8.996;2022-09-02T05:49:04;8.32;;;4.53;;
72524;SDS011;60547;48.502;8.996;2022-09-02T05:54:10;6.38;;;4.97;;
72524;SDS011;60547;48.502;8.996;2022-09-02T05:56:39;7.90;;;5.80;;
72524;SDS011;60547;48.502;8.996;2022-09-02T05:59:07;7.65;;;4.97;;
72524;SDS011;60547;48.502;8.996;2022-09-02T06:01:33;8.65;;;4.80;;
72524;SDS011;60547;48.502;8.996;2022-09-02T06:03:59;7.95;;;4.93;;
72524;SDS011;60547;48.502;8.996;2022-09-02T06:06:27;6.28;;;3.92;;
72524;SDS011;60547;48.502;8.996;2022-09-02T06:08:53;7.40;;;3.75;;
72524;SDS011;60547;48.502;8.996;2022-09-02T06:11:19;6.65;;;4.57;;
72524;SDS011;60547;48.502;8.996;2022-09-02T06:13:45;5.72;;;4.13;;
72524;SDS011;60547;48.502;8.996;2022-09-02T06:16:16;7.63;;;4.03;;
72524;SDS011;60547;48.502;8.996;2022-09-02T06:18:45;5.90;;;3.92;;
72524;SDS011;60547;48.502;8.996;2022-09-02T06:21:11;6.78;;;4.30;;
72524;SDS011;60547;48.502;8.996;2022-09-02T06:23:38;6.50;;;3.85;;
72524;SDS011;60547;48.502;8.996;2022-09-02T06:26:07;7.93;;;4.57;;
72524;SDS011;60547;48.502;8.996;2022-09-02T06:28:34;6.05;;;3.95;;
72524;SDS011;60547;48.502;8.996;2022-09-02T06:31:05;5.65;;;4.05;;
72524;SDS011;60547;48.502;8.996;2022-09-02T06:33:41;6.05;;;3.90;;
72524;SDS011;60547;48.502;8.996;2022-09-02T06:36:10;5.75;;;4.47;;
72524;SDS011;60547;48.502;8.996;2022-09-02T06:38:39;5.78;;;4.05;;
72524;SDS011;60547;48.502;8.996;2022-09-02T06:41:09;7.65;;;4.13;;
72524;SDS011;60547;48.502;8.996;2022-09-02T06:43:36;8.05;;;4.32;;
72524;SDS011;60547;48.502;8.996;2022-09-02T06:46:02;6.30;;;4.55;;
72524;SDS011;60547;48.502;8.996;2022-09-02T06:48:27;6.07;;;4.22;;
72524;SDS011;60547;48.502;8.996;2022-09-02T06:50:53;6.07;;;4.45;;
72524;SDS011;60547;48.502;8.996;2022-09-02T06:53:19;7.13;;;4.35;;
72524;SDS011;60547;48.502;8.996;2022-09-02T06:55:45;7.22;;;4.20;;
72524;SDS011;60547;48.502;8.996;2022-09-02T06:58:11;6.57;;;4.93;;
72524;SDS011;60547;48.502;8.996;2022-09-02T07:00:38;6.55;;;4.30;;
72524;SDS011;60547;48.502;8.996;2022-09-02T07:03:05;6.72;;;4.10;;
72524;SDS011;60547;48.502;8.996;2022-09-02T07:06:02;6.03;;;4.32;;
72524;SDS011;60547;48.502;8.996;2022-09-02T07:08:34;5.63;;;4.13;;
72524;SDS011;60547;48.502;8.996;2022-09-02T07:11:00;9.07;;;4.50;;
72524;SDS011;60547;48.502;8.996;2022-09-02T07:13:25;6.10;;;3.70;;
72524;SDS011;60547;48.502;8.996;2022-09-02T07:15:51;6.38;;;4.93;;
72524;SDS011;60547;48.502;8.996;2022-09-02T07:18:16;6.03;;;4.13;;
72524;SDS011;60547;48.502;8.996;2022-09-02T07:20:45;6.32;;;4.35;;
72524;SDS011;60547;48.502;8.996;2022-09-02T07:23:12;5.55;;;4.20;;
72524;SDS011;60547;48.502;8.996;2022-09-02T07:25:38;5.75;;;4.03;;
72524;SDS011;60547;48.502;8.996;2022-09-02T07:28:05;5.20;;;4.03;;
72524;SDS011;60547;48.502;8.996;2022-09-02T07:30:32;7.20;;;4.78;;
72524;SDS011;60547;48.502;8.996;2022-09-02T07:32:57;5.60;;;3.75;;
72524;SDS011;60547;48.502;8.996;2022-09-02T07:35:23;6.18;;;3.83;;
72524;SDS011;60547;48.502;8.996;2022-09-02T07:37:49;6.53;;;4.15;;
72524;SDS011;60547;48.502;8.996;2022-09-02T07:40:15;6.93;;;4.07;;
72524;SDS011;60547;48.502;8.996;2022-09-02T07:42:40;5.53;;;3.63;;
72524;SDS011;60547;48.502;8.996;2022-09-02T07:45:07;5.07;;;3.60;;
72524;SDS011;60547;48.502;8.996;2022-09-02T07:47:33;6.38;;;4.03;;
72524;SDS011;60547;48.502;8.996;2022-09-02T07:49:59;5.10;;;3.92;;
72524;SDS011;60547;48.502;8.996;2022-09-02T07:52:24;6.65;;;3.63;;
72524;SDS011;60547;48.502;8.996;2022-09-02T07:54:50;5.18;;;3.35;;
72524;SDS011;60547;48.502;8.996;2022-09-02T07:57:15;5.32;;;3.17;;
72524;SDS011;60547;48.502;8.996;2022-09-02T07:59:41;7.20;;;3.30;;
72524;SDS011;60547;48.502;8.996;2022-09-02T08:02:07;5.63;;;2.92;;
72524;SDS011;60547;48.502;8.996;2022-09-02T08:04:36;5.57;;;3.30;;
72524;SDS011;60547;48.502;8.996;2022-09-02T08:07:02;8.10;;;3.83;;
72524;SDS011;60547;48.502;8.996;2022-09-02T08:09:28;6.22;;;2.90;;
72524;SDS011;60547;48.502;8.996;2022-09-02T08:11:53;5.03;;;2.60;;
72524;SDS011;60547;48.502;8.996;2022-09-02T08:14:20;5.53;;;2.60;;
72524;SDS011;60547;48.502;8.996;2022-09-02T08:16:50;4.18;;;2.53;;
72524;SDS011;60547;48.502;8.996;2022-09-02T08:19:16;5.95;;;2.70;;
72524;SDS011;60547;48.502;8.996;2022-09-02T08:21:42;5.95;;;2.72;;
72524;SDS011;60547;48.502;8.996;2022-09-02T08:24:07;3.53;;;1.73;;
72524;SDS011;60547;48.502;8.996;2022-09-02T08:26:34;4.13;;;1.80;;
72524;SDS011;60547;48.502;8.996;2022-09-02T08:29:03;4.40;;;1.98;;
72524;SDS011;60547;48.502;8.996;2022-09-02T08:31:29;3.97;;;1.60;;
72524;SDS011;60547;48.502;8.996;2022-09-02T08:33:56;4.40;;;1.80;;
72524;SDS011;60547;48.502;8.996;2022-09-02T08:36:22;4.15;;;1.98;;
72524;SDS011;60547;48.502;8.996;2022-09-02T08:38:48;4.20;;;1.85;;
72524;SDS011;60547;48.502;8.996;2022-09-02T08:41:23;3.42;;;1.70;;
72524;SDS011;60547;48.502;8.996;2022-09-02T08:43:51;3.25;;;1.70;;
72524;SDS011;60547;48.502;8.996;2022-09-02T08:46:19;5.38;;;1.80;;
72524;SDS011;60547;48.502;8.996;2022-09-02T08:51:34;3.97;;;1.65;;
72524;SDS011;60547;48.502;8.996;2022-09-02T08:54:18;8.65;;;2.30;;
72524;SDS011;60547;48.502;8.996;2022-09-02T08:56:50;2.97;;;1.55;;
72524;SDS011;60547;48.502;8.996;2022-09-02T08:59:20;4.55;;;1.73;;
72524;SDS011;60547;48.502;8.996;2022-09-02T09:01:55;3.33;;;1.95;;
72524;SDS011;60547;48.502;8.996;2022-09-02T09:04:31;4.68;;;1.60;;
72524;SDS011;60547;48.502;8.996;2022-09-02T09:18:07;3.72;;;1.58;;
72524;SDS011;60547;48.502;8.996;2022-09-02T09:20:40;4.00;;;1.60;;
72524;SDS011;60547;48.502;8.996;2022-09-02T09:23:17;3.08;;;1.67;;
72524;SDS011;60547;48.502;8.996;2022-09-02T09:25:49;4.15;;;1.70;;
72524;SDS011;60547;48.502;8.996;2022-09-02T09:30:44;4.72;;;1.75;;
72524;SDS011;60547;48.502;8.996;2022-09-02T09:33:10;4.32;;;1.70;;
72524;SDS011;60547;48.502;8.996;2022-09-02T09:35:50;4.10;;;1.60;;
72524;SDS011;60547;48.502;8.996;2022-09-02T09:38:26;3.20;;;1.58;;
72524;SDS011;60547;48.502;8.996;2022-09-02T09:41:16;2.83;;;1.50;;
72524;SDS011;60547;48.502;8.996;2022-09-02T09:43:45;4.18;;;1.80;;
72524;SDS011;60547;48.502;8.996;2022-09-02T09:46:24;3.55;;;1.38;;
72524;SDS011;60547;48.502;8.996;2022-09-02T09:48:54;3.63;;;1.50;;
72524;SDS011;60547;48.502;8.996;2022-09-02T09:51:20;3.00;;;1.50;;
72524;SDS011;60547;48.502;8.996;2022-09-02T09:53:45;2.58;;;1.30;;
72524;SDS011;60547;48.502;8.996;2022-09-02T09:58:45;4.07;;;1.63;;
72524;SDS011;60547;48.502;8.996;2022-09-02T10:03:47;3.38;;;1.48;;
72524;SDS011;60547;48.502;8.996;2022-09-02T10:09:01;2.88;;;1.52;;
72524;SDS011;60547;48.502;8.996;2022-09-02T10:11:31;3.50;;;1.50;;
72524;SDS011;60547;48.502;8.996;2022-09-02T10:14:05;2.25;;;1.27;;
72524;SDS011;60547;48.502;8.996;2022-09-02T10:19:16;2.92;;;1.40;;
72524;SDS011;60547;48.502;8.996;2022-09-02T10:25:03;2.75;;;1.50;;
72524;SDS011;60547;48.502;8.996;2022-09-02T10:27:42;6.15;;;1.70;;
72524;SDS011;60547;48.502;8.996;2022-09-02T10:30:25;3.17;;;1.48;;
72524;SDS011;60547;48.502;8.996;2022-09-02T10:33:01;2.45;;;1.35;;
72524;SDS011;60547;48.502;8.996;2022-09-02T10:46:16;4.40;;;1.55;;
72524;SDS011;60547;48.502;8.996;2022-09-02T10:48:55;4.95;;;1.63;;
72524;SDS011;60547;48.502;8.996;2022-09-02T10:56:48;2.25;;;1.15;;
72524;SDS011;60547;48.502;8.996;2022-09-02T10:59:39;2.35;;;1.20;;
72524;SDS011;60547;48.502;8.996;2022-09-02T11:02:27;2.45;;;1.30;;
72524;SDS011;60547;48.502;8.996;2022-09-02T11:04:59;4.07;;;1.40;;
72524;SDS011;60547;48.502;8.996;2022-09-02T11:07:34;3.75;;;1.70;;
72524;SDS011;60547;48.502;8.996;2022-09-02T11:10:10;2.72;;;1.48;;
72524;SDS011;60547;48.502;8.996;2022-09-02T11:12:46;3.35;;;1.48;;
72524;SDS011;60547;48.502;8.996;2022-09-02T11:15:34;3.05;;;1.60;;
72524;SDS011;60547;48.502;8.996;2022-09-02T11:18:26;4.45;;;1.50;;
72524;SDS011;60547;48.502;8.996;2022-09-02T11:23:36;4.30;;;1.60;;
72524;SDS011;60547;48.502;8.996;2022-09-02T11:31:25;3.58;;;1.40;;
72524;SDS011;60547;48.502;8.996;2022-09-02T11:36:36;4.00;;;1.48;;
72524;SDS011;60547;48.502;8.996;2022-09-02T11:39:04;4.15;;;1.40;;
72524;SDS011;60547;48.502;8.996;2022-09-02T11:47:21;4.13;;;1.60;;
72524;SDS011;60547;48.502;8.996;2022-09-02T11:50:06;2.55;;;1.50;;
72524;SDS011;60547;48.502;8.996;2022-09-02T11:55:45;3.65;;;1.40;;
72524;SDS011;60547;48.502;8.996;2022-09-02T12:01:04;2.85;;;1.40;;
72524;SDS011;60547;48.502;8.996;2022-09-02T12:03:43;2.97;;;1.48;;
72524;SDS011;60547;48.502;8.996;2022-09-02T12:06:15;3.53;;;1.40;;
72524;SDS011;60547;48.502;8.996;2022-09-02T12:11:54;3.65;;;1.63;;
72524;SDS011;60547;48.502;8.996;2022-09-02T12:14:02;3.63;;;1.60;;
72524;SDS011;60547;48.502;8.996;2022-09-02T12:21:19;2.88;;;1.30;;
72524;SDS011;60547;48.502;8.996;2022-09-02T12:27:06;4.55;;;1.67;;
72524;SDS011;60547;48.502;8.996;2022-09-02T12:31:47;2.65;;;1.40;;
72524;SDS011;60547;48.502;8.996;2022-09-02T12:42:32;3.58;;;1.50;;
72524;SDS011;60547;48.502;8.996;2022-09-02T12:44:53;3.92;;;1.50;;
72524;SDS011;60547;48.502;8.996;2022-09-02T12:50:30;2.92;;;1.30;;
72524;SDS011;60547;48.502;8.996;2022-09-02T12:56:00;2.85;;;1.42;;
72524;SDS011;60547;48.502;8.996;2022-09-02T12:58:28;2.63;;;1.40;;
72524;SDS011;60547;48.502;8.996;2022-09-02T13:06:55;4.15;;;1.35;;
72524;SDS011;60547;48.502;8.996;2022-09-02T13:12:13;3.50;;;1.38;;
72524;SDS011;60547;48.502;8.996;2022-09-02T13:14:53;3.85;;;1.52;;
72524;SDS011;60547;48.502;8.996;2022-09-02T13:17:28;4.18;;;1.73;;
72524;SDS011;60547;48.502;8.996;2022-09-02T13:34:45;3.40;;;1.42;;
72524;SDS011;60547;48.502;8.996;2022-09-02T13:37:32;5.80;;;2.05;;
72524;SDS011;60547;48.502;8.996;2022-09-02T13:42:56;3.72;;;1.65;;
72524;SDS011;60547;48.502;8.996;2022-09-02T13:45:25;2.72;;;1.40;;
72524;SDS011;60547;48.502;8.996;2022-09-02T13:47:55;3.22;;;1.52;;
72524;SDS011;60547;48.502;8.996;2022-09-02T13:50:24;3.78;;;1.23;;
72524;SDS011;60547;48.502;8.996;2022-09-02T13:52:53;2.88;;;1.48;;
72524;SDS011;60547;48.502;8.996;2022-09-02T13:55:23;2.60;;;1.30;;
72524;SDS011;60547;48.502;8.996;2022-09-02T13:57:53;2.75;;;1.30;;
72524;SDS011;60547;48.502;8.996;2022-09-02T14:00:26;3.10;;;1.50;;
72524;SDS011;60547;48.502;8.996;2022-09-02T14:02:58;2.67;;;1.40;;
72524;SDS011;60547;48.502;8.996;2022-09-02T14:05:46;3.88;;;1.60;;
72524;SDS011;60547;48.502;8.996;2022-09-02T14:08:32;3.85;;;1.52;;
72524;SDS011;60547;48.502;8.996;2022-09-02T14:10:57;2.83;;;1.48;;
72524;SDS011;60547;48.502;8.996;2022-09-02T14:13:23;2.80;;;1.40;;
72524;SDS011;60547;48.502;8.996;2022-09-02T14:15:49;3.35;;;1.30;;
72524;SDS011;60547;48.502;8.996;2022-09-02T14:18:15;2.38;;;1.20;;
72524;SDS011;60547;48.502;8.996;2022-09-02T14:23:26;2.67;;;1.25;;
72524;SDS011;60547;48.502;8.996;2022-09-02T14:25:53;2.72;;;1.45;;
72524;SDS011;60547;48.502;8.996;2022-09-02T14:28:25;3.53;;;1.60;;
72524;SDS011;60547;48.502;8.996;2022-09-02T14:36:01;3.40;;;1.40;;
72524;SDS011;60547;48.502;8.996;2022-09-02T14:38:34;3.40;;;1.55;;
72524;SDS011;60547;48.502;8.996;2022-09-02T14:41:12;2.42;;;1.33;;
72524;SDS011;60547;48.502;8.996;2022-09-02T14:43:47;3.10;;;1.60;;
72524;SDS011;60547;48.502;8.996;2022-09-02T14:49:06;2.60;;;1.33;;
72524;SDS011;60547;48.502;8.996;2022-09-02T14:51:38;2.10;;;1.20;;
72524;SDS011;60547;48.502;8.996;2022-09-02T14:54:08;2.97;;;1.40;;
72524;SDS011;60547;48.502;8.996;2022-09-02T14:56:42;2.90;;;1.40;;
72524;SDS011;60547;48.502;8.996;2022-09-02T14:59:17;3.00;;;1.50;;
72524;SDS011;60547;48.502;8.996;2022-09-02T15:01:47;2.63;;;1.33;;
72524;SDS011;60547;48.502;8.996;2022-09-02T15:04:15;2.70;;;1.42;;
72524;SDS011;60547;48.502;8.996;2022-09-02T15:06:42;3.25;;;1.30;;
72524;SDS011;60547;48.502;8.996;2022-09-02T15:09:07;3.55;;;1.40;;
72524;SDS011;60547;48.502;8.996;2022-09-02T15:11:33;3.28;;;1.40;;
72524;SDS011;60547;48.502;8.996;2022-09-02T15:14:02;2.90;;;1.50;;
72524;SDS011;60547;48.502;8.996;2022-09-02T15:16:27;3.15;;;1.50;;
72524;SDS011;60547;48.502;8.996;2022-09-02T15:18:53;3.53;;;1.40;;
72524;SDS011;60547;48.502;8.996;2022-09-02T15:21:19;2.65;;;1.30;;
72524;SDS011;60547;48.502;8.996;2022-09-02T15:23:45;2.78;;;1.52;;
72524;SDS011;60547;48.502;8.996;2022-09-02T15:26:11;2.75;;;1.38;;
72524;SDS011;60547;48.502;8.996;2022-09-02T15:28:36;6.95;;;1.60;;
72524;SDS011;60547;48.502;8.996;2022-09-02T15:31:02;3.33;;;1.70;;
72524;SDS011;60547;48.502;8.996;2022-09-02T15:33:28;4.85;;;1.60;;
72524;SDS011;60547;48.502;8.996;2022-09-02T15:35:54;4.63;;;1.70;;
72524;SDS011;60547;48.502;8.996;2022-09-02T15:38:28;3.60;;;1.60;;
72524;SDS011;60547;48.502;8.996;2022-09-02T15:55:26;2.67;;;1.77;;
72524;SDS011;60547;48.502;8.996;2022-09-02T15:57:56;4.53;;;1.60;;
72524;SDS011;60547;48.502;8.996;2022-09-02T16:00:21;2.85;;;1.52;;
72524;SDS011;60547;48.502;8.996;2022-09-02T16:02:47;3.08;;;1.40;;
72524;SDS011;60547;48.502;8.996;2022-09-02T16:05:12;4.15;;;1.67;;
72524;SDS011;60547;48.502;8.996;2022-09-02T16:07:38;4.30;;;1.70;;
72524;SDS011;60547;48.502;8.996;2022-09-02T16:10:03;2.80;;;1.50;;
72524;SDS011;60547;48.502;8.996;2022-09-02T16:12:30;2.53;;;1.33;;
72524;SDS011;60547;48.502;8.996;2022-09-02T16:14:56;4.88;;;1.95;;
72524;SDS011;60547;48.502;8.996;2022-09-02T16:17:21;3.10;;;1.55;;
72524;SDS011;60547;48.502;8.996;2022-09-02T16:19:47;3.35;;;1.40;;
72524;SDS011;60547;48.502;8.996;2022-09-02T16:22:12;7.72;;;4.15;;
72524;SDS011;60547;48.502;8.996;2022-09-02T16:24:38;7.10;;;3.95;;
72524;SDS011;60547;48.502;8.996;2022-09-02T16:27:03;7.65;;;3.60;;
72524;SDS011;60547;48.502;8.996;2022-09-02T16:29:29;9.55;;;5.00;;
72524;SDS011;60547;48.502;8.996;2022-09-02T16:31:54;4.75;;;2.60;;
72524;SDS011;60547;48.502;8.996;2022-09-02T16:34:20;7.05;;;2.92;;
72524;SDS011;60547;48.502;8.996;2022-09-02T16:36:46;3.50;;;1.90;;
72524;SDS011;60547;48.502;8.996;2022-09-02T16:39:14;13.38;;;7.13;;
72524;SDS011;60547;48.502;8.996;2022-09-02T16:41:59;5.47;;;3.20;;
72524;SDS011;60547;48.502;8.996;2022-09-02T16:44:28;5.05;;;2.00;;
72524;SDS011;60547;48.502;8.996;2022-09-02T16:46:55;3.90;;;1.90;;
72524;SDS011;60547;48.502;8.996;2022-09-02T16:49:20;3.70;;;1.85;;
72524;SDS011;60547;48.502;8.996;2022-09-02T16:51:47;4.00;;;1.60;;
72524;SDS011;60547;48.502;8.996;2022-09-02T16:54:14;4.80;;;2.20;;
72524;SDS011;60547;48.502;8.996;2022-09-02T16:56:40;4.28;;;2.33;;
72524;SDS011;60547;48.502;8.996;2022-09-02T16:59:06;4.20;;;2.17;;
72524;SDS011;60547;48.502;8.996;2022-09-02T17:01:34;6.63;;;2.75;;
72524;SDS011;60547;48.502;8.996;2022-09-02T17:04:00;4.15;;;2.53;;
72524;SDS011;60547;48.502;8.996;2022-09-02T17:06:27;4.80;;;2.55;;
72524;SDS011;60547;48.502;8.996;2022-09-02T17:08:53;5.70;;;2.50;;
72524;SDS011;60547;48.502;8.996;2022-09-02T17:11:23;4.28;;;2.20;;
72524;SDS011;60547;48.502;8.996;2022-09-02T17:13:50;4.72;;;2.08;;
72524;SDS011;60547;48.502;8.996;2022-09-02T17:16:24;6.60;;;3.30;;
72524;SDS011;60547;48.502;8.996;2022-09-02T17:18:51;4.82;;;2.58;;
72524;SDS011;60547;48.502;8.996;2022-09-02T17:21:27;5.50;;;2.80;;
72524;SDS011;60547;48.502;8.996;2022-09-02T17:23:55;11.73;;;7.03;;
72524;SDS011;60547;48.502;8.996;2022-09-02T17:26:22;8.57;;;5.30;;
72524;SDS011;60547;48.502;8.996;2022-09-02T17:28:49;10.50;;;6.45;;